Tikaboo Peak, Nevada Weather observations

Data are for 10 minute period ending at time listed.
 Day   Time   Solar   Ave.   Ave.  Ave.  Vector  Max.   Baro.   Total    
  of    of     Rad.   Air    Rel.  Wind   Wind   Wind  Press.  Precip.   
Year   Day            Temp.  Hum.  Speed  Dir.   Gust                    
2014   (PST)  Kw/m2    F      %     mph   deg.    mph    mb.     in.     
-------------------------------------------------------------------------
 350   15:20   0.10   31.1    72    3.2   239     6.1   756.9    0.00 
 350   15:30   0.08   30.7    73    2.8   278     4.7   756.9    0.00 
 350   15:40   0.05   30.3    74    3.0   282     4.7   756.9    0.01 
 350   15:50   0.03   29.8    75    0.8   287     3.8   757.0    0.00 
 350   16:00   0.02   29.5    76    2.3   250     5.3   757.1    0.00 
 350   16:10   0.01   29.0    77    2.3   244     5.0   757.1    0.00 
 350   16:20   0.01   28.7    78    2.6   230     5.0   757.1    0.00 
 350   16:30   0.00   28.3    78    3.6   211     6.1   757.0    0.00 
 350   16:40   0.00   27.9    78    4.5   192     7.0   757.1    0.00 
 350   16:50   0.00   27.8    80    4.5   217     7.4   757.0    0.00 
 350   17:00   0.00   28.0    82    6.4   247     8.0   757.0    0.00 
 350   17:10   0.00   28.0    83    6.1   229     7.9   756.9    0.00 
 350   17:20   0.00   28.2    82    5.1   227     6.7   756.9    0.00 
 350   17:30   0.00   28.2    81    5.0   184     6.5   757.0    0.00 
 350   17:40   0.00   28.2    82    6.7   174     9.7   757.0    0.00 
 350   17:50   0.00   28.0    81    5.6   159     8.2   757.0    0.00 
 350   18:00   0.00   27.8    82    5.3   164     7.7   757.1    0.00 
 350   18:10   0.00   27.8    82    5.9   168     7.9   757.2    0.00 
 350   18:20   0.00   28.0    83    4.8   195     6.7   757.2    0.00 
 350   18:30   0.00   27.8    83    3.6   182     7.0   757.3    0.00 
 350   18:40   0.00   27.2    80    6.8   138     9.2   757.2    0.00 
 350   18:50   0.00   26.8    80    9.6   140    11.1   757.0    0.00 
 350   19:00   0.00   27.2    83   10.3   141    11.2   757.2    0.00 
 350   19:10   0.00   27.5    84    9.7   148    11.0   757.2    0.00 
 350   19:20   0.00   27.4    83    7.4   144    10.4   757.2    0.00 
 350   19:30   0.00   26.3    77   11.4   129    15.2   757.1    0.00 
 350   19:40   0.00   26.1    72   14.2   129    17.1   757.1    0.00 
 350   19:50   0.00   26.1    72   14.4   133    16.8   757.1    0.00 
 350   20:00   0.00   26.1    76   15.8   133    18.0   757.1    0.00 
 350   20:10   0.00   26.4    75   15.2   139    17.6   757.1    0.00 
 350   20:20   0.00   26.3    79   13.8   142    17.2   757.1    0.00 
 350   20:30   0.00   26.2    82   14.0   139    18.1   757.0    0.00 
 350   20:40   0.00   26.2    84   11.9   136    16.1   757.1    0.00 
 350   20:50   0.00   26.2    82   10.9   142    14.2   757.1    0.00 
 350   21:00   0.00   26.7    80    9.0   154    14.0   757.2    0.00 
 350   21:10   0.00   26.5    78   10.9   142    13.8   757.0    0.00 
 350   21:20   0.00   26.3    77   10.5   134    13.2   757.0    0.00 
 350   21:30   0.00   26.4    75    7.5   142    11.9   757.1    0.00 
 350   21:40   0.00   26.7    75    6.8   162     9.1   757.0    0.00 
 350   21:50   0.00   26.9    75    5.5   191     8.3   757.1    0.00 
 350   22:00   0.00   26.9    75    4.7   177     6.2   757.2    0.00 
 350   22:10   0.00   27.6    79    7.9   188     9.4   757.1    0.00 
 350   22:20   0.00   28.2    78    6.4   194     8.7   757.1    0.00 
 350   22:30   0.00   28.2    78    5.3   185     8.0   757.1    0.00 
 350   22:40   0.00   26.9    74    6.7   171     9.3   757.1    0.00 
 350   22:50   0.00   26.9    73    4.9   179     7.1   757.1    0.00 
 350   23:00   0.00   26.5    76    4.1   186     6.2   757.1    0.00 
 350   23:10   0.00   26.3    78    5.6   192     6.4   757.0    0.00 
 350   23:20   0.00   26.2    80    3.3   187     4.8   756.9    0.00 
 350   23:30   0.00   25.9    82    2.5   182     4.2   756.8    0.00 
 350   23:40   0.00   25.5    86    2.6   159     4.5   756.6    0.00 
 350   23:50   0.00   25.6    84    3.2    72     4.1   756.6    0.00 
 351    0:00   0.00   25.6    84    2.6    19     4.0   756.5    0.00 
 351    0:10   0.00   25.9    88    1.5   218     4.5   756.4    0.00 
 351    0:20   0.00   26.6    95    7.2   189    13.7   756.3    0.00 
 351    0:30   0.00   27.0    98   12.2   188    16.3   756.2    0.00 
 351    0:40   0.00   27.1   100   13.5   184    18.7   756.1    0.00 
 351    0:50   0.00   27.1   100   15.1   188    19.3   756.0    0.00 
 351    1:00   0.00   27.2   100   11.2   201    18.3   756.1    0.00 
 351    1:10   0.00   27.0   100    8.9   186    14.1   755.9    0.00 
 351    1:20   0.00   27.1   100    9.0   180    12.9   755.9    0.00 
 351    1:30   0.00   27.1   100    9.1   207    12.6   755.9    0.00 
 351    1:40   0.00   27.1   100    9.4   201    14.0   755.9    0.00 
 351    1:50   0.00   27.2   100    9.3   208    12.6   755.9    0.00 
 351    2:00   0.00   27.2   100    8.6   212    12.1   755.9    0.00 
 351    2:10   0.00   27.1   100    8.1   213    10.9   755.9    0.00 
 351    2:20   0.00   27.1   100    7.3   215     9.4   755.8    0.00 
 351    2:30   0.00   26.9   100    7.5   215     9.4   755.8    0.00 
 351    2:40   0.00   26.9   100    7.9   213    10.2   755.9    0.00 
 351    2:50   0.00   26.8   100    7.7   219     9.2   755.9    0.00 
 351    3:00   0.00   26.8   100    7.2   241    10.4   755.9    0.00 
 351    3:10   0.00   26.9   100    7.9   266    10.7   755.8    0.00 
 351    3:20   0.00   26.8   100    9.7   269    12.5   755.8    0.00 
 351    3:30   0.00   26.8   100   10.0   270    12.9   755.8    0.00 
 351    3:40   0.00   26.8   100    8.4   280    12.1   755.7    0.00 
 351    3:50   0.00   26.7   100    7.4   278    10.3   755.7    0.00 
 351    4:00   0.00   26.7   100    7.9   290    10.9   755.7    0.00 
 351    4:10   0.00   26.6   100    5.4   299     8.3   755.7    0.00 
 351    4:20   0.00   26.6   100    5.9   289     8.8   755.6    0.00 
 351    4:30   0.00   26.5   100    7.0   293     9.1   755.5    0.00 
 351    4:40   0.00   26.2   100    7.3   299     9.5   755.6    0.00 
 351    4:50   0.00   26.1   100    7.6   296     9.2   755.6    0.00 
 351    5:00   0.00   26.1   100    5.8   296     7.7   755.7    0.00 
 351    5:10   0.00   26.1   100    7.2   287     9.6   755.7    0.00 
 351    5:20   0.00   26.1   100    5.3   294     7.7   755.8    0.00 
 351    5:30   0.00   26.1   100    5.8   294     7.5   755.8    0.00 
 351    5:40   0.00   26.2   100    5.2   285     8.2   755.9    0.00 
 351    5:50   0.00   26.1   100    5.7   293     8.1   755.9    0.00 
 351    6:00   0.00   26.0   100    4.3   294     6.3   756.1    0.00 
 351    6:10   0.00   25.8    99    6.4   280     8.5   756.1    0.00 
 351    6:20   0.00   25.6    99    5.5   281     7.7   756.1    0.00 
 351    6:30   0.00   25.4    99    5.7   272     7.3   756.1    0.00 
 351    6:40   0.00   25.0    99    5.7   271     7.2   756.0    0.00 
 351    6:50   0.00   24.6    99    3.9   293     6.3   756.1    0.00 
 351    7:00   0.01   24.4    99    4.6   260     5.6   756.2    0.00 
 351    7:10   0.02   24.9    99    2.6   278     4.8   756.3    0.00 
 351    7:20   0.04   25.8   100    1.3   214     2.3   756.4    0.00 
 351    7:30   0.04   25.8    99    1.8   162     3.0   756.4    0.00 
 351    7:40   0.06   25.8   100    2.6   156     3.9   756.5    0.00 
 351    7:50   0.06   25.8   100    3.2   155     5.2   756.5    0.00 
 351    8:00   0.07   25.9   100    4.6   159     7.1   756.6    0.00 
 351    8:10   0.06   25.8    99    5.4   168     7.6   756.6    0.00 
 351    8:20   0.07   26.0    99    2.9   180     4.5   756.7    0.00 
 351    8:30   0.09   26.2   100    3.8   152     5.1   756.8    0.00 
 351    8:40   0.08   26.3   100    3.7   152     5.2   756.9    0.00 
 351    8:50   0.11   26.3   100    4.1   152     5.0   757.0    0.00 
 351    9:00   0.15   26.4   100    4.4   158     5.6   757.1    0.00 
 351    9:10   0.19   26.5   100    4.1   187     6.3   757.2    0.00 
 351    9:20   0.19   27.3   100    2.3   200     4.2   757.3    0.00 
 351    9:30   0.25   27.9   100    2.5   177     5.1   757.4    0.00 
 351    9:40   0.17   27.5    99    3.0   149     4.7   757.5    0.00 
 351    9:50   0.19   27.6   100    3.7   191     6.1   757.6    0.00 
 351   10:00   0.21   27.8    99    4.0   196     5.9   757.7    0.00 
 351   10:10   0.22   28.1   100    3.5   175     5.6   757.6    0.00 
 351   10:20   0.21   28.2   100    3.6   187     7.7   757.6    0.00 
 351   10:30   0.18   28.2   100    4.7   202     7.4   757.6    0.02 
 351   10:40   0.16   28.0    99    3.7   203     7.5   757.5    0.00 
 351   10:50   0.16   28.0    99    5.0   209     8.3   757.4    0.00 
 351   11:00   0.18   28.3   100    4.3   220     8.6   757.4    0.00 
 351   11:10   0.17   28.7   100    4.3   213     6.6   757.3    0.00 
 351   11:20   0.26   28.5   100    2.7   193     6.6   757.2    0.00 
 351   11:30   0.23   29.0   100    3.3   216     5.8   757.1    0.00 
 351   11:40   0.26   29.0    99    4.3   208     6.7   757.0    0.01 
 351   11:50   0.31   29.6    99    3.3   209     6.4   756.9    0.00 
 351   12:00   0.25   29.7    99    2.8   229     6.7   756.9    0.00 
 351   12:10   0.22   29.6    99    2.5   228     6.4   756.7    0.00 
 351   12:20   0.18   29.7    99    1.4   229     4.3   756.6    0.01 
 351   12:30   0.23   30.0    99    0.6   227     3.3   756.6    0.00 
 351   12:40   0.14   30.4   100    0.0     0     0.0   756.5    0.00 
 351   12:50   0.16   29.8   100    1.2   226     5.8   756.5    0.00 
 351   13:00   0.18   29.8   100    3.8   224     8.8   756.6    0.00 
 351   13:10   0.19   29.8   100    3.8   227     7.4   756.5    0.01 
 351   13:20   0.19   29.2    99    3.5   224     6.5   756.5    0.00 
 351   13:30   0.13   29.3    99    3.5   245     5.3   756.6    0.01 
 351   13:40   0.10   28.7    99    3.7   232     6.3   756.6    0.00 
 351   13:50   0.13   28.7    99    4.0   233     6.1   756.6    0.00 
 351   14:00   0.10   28.7    99    3.7   241     7.5   756.7    0.00 
 351   14:10   0.11   28.7   100    3.7   238     7.2   756.8    0.01 
 351   14:20   0.10   28.6   100    5.4   227     8.4   756.8    0.00 
 351   14:30   0.08   28.4   100    6.0   223     9.7   756.7    0.00 
 351   14:40   0.07   28.5   100    4.8   237     7.9   756.7    0.00 
 351   14:50   0.05   28.3   100    5.1   227     8.3   756.8    0.00 
 351   15:00   0.07   28.3   100    3.5   239     7.2   756.9    0.00 
 351   15:10   0.05   28.5   100    3.9   249     6.3   756.9    0.00 

Return to Tikaboo Peak graphs page.


Western Regional Climate Center,wrcc@dri.edu